Time;durP1;ratioP1;P1;durP2;ratioP2;P2;SDS_P1;SDS_P2;PMS_P1;PMS_P2;Temp;Humidity;BMP_temperature;BMP_pressure;BME280_temperature;BME280_humidity;BME280_pressure;Samples;Min_cycle;Max_cycle;Signal;HPM_P1;HPM_P2
2023/12/11 00:00:34;;;;;;;;;;;15.90;82.60;;;;;;5051871;28;19909;-74
2023/12/11 00:03:00;;;;;;;;;;;15.90;82.80;;;;;;5052320;28;19913;-74
2023/12/11 00:05:26;;;;;;;;;;;16.00;82.70;;;;;;5052755;28;19909;-70
2023/12/11 00:07:52;;;;;;;;;;;16.00;82.60;;;;;;5052202;28;20310;-70
2023/12/11 00:10:18;;;;;;;;;;;16.10;82.90;;;;;;5052222;28;20352;-70
2023/12/11 00:12:44;;;;;;;;;;;16.10;82.90;;;;;;5052096;28;20356;-69
2023/12/11 00:15:11;;;;;;;;;;;15.80;82.70;;;;;;5052209;28;19944;-70
2023/12/11 00:17:37;;;;;;;;;;;16.00;82.50;;;;;;5051814;28;19924;-70
2023/12/11 00:20:03;;;;;;;;;;;16.00;82.90;;;;;;5052102;28;19963;-70
2023/12/11 00:22:29;;;;;;;;;;;18.30;83.90;;;;;;5051738;28;19908;-69
2023/12/11 00:24:55;;;;;;;;;;;15.90;82.70;;;;;;5052389;28;20387;-71
2023/12/11 00:27:21;;;;;;;;;;;16.10;82.70;;;;;;5055649;28;19912;-70
2023/12/11 00:29:47;;;;;;;;;;;16.00;82.50;;;;;;5055431;28;19916;-69
2023/12/11 00:32:13;;;;;;;;;;;16.00;82.70;;;;;;5055897;28;19909;-69
2023/12/11 00:34:39;;;;;;;;;;;16.00;82.70;;;;;;5055737;28;19909;-74
2023/12/11 00:37:05;;;;;;;;;;;16.00;82.90;;;;;;5055628;28;20009;-74
2023/12/11 00:39:31;;;;;;;;;;;16.00;82.80;;;;;;5055290;28;19909;-74
2023/12/11 00:41:56;;;;;;;;;;;16.00;82.70;;;;;;5055271;28;19909;-74
2023/12/11 00:44:22;;;;;;;;;;;16.00;82.60;;;;;;5055336;28;19912;-74
2023/12/11 00:46:47;;;;;;;;;;;16.00;82.80;;;;;;5055286;28;19909;-75
2023/12/11 00:49:13;;;;;;;;;;;15.80;82.50;;;;;;5055315;28;19916;-75
2023/12/11 00:51:38;;;;;;;;;;;16.00;82.80;;;;;;5055773;28;19921;-75
2023/12/11 00:54:04;;;;;;;;;;;16.00;82.50;;;;;;5055214;28;19916;-75
2023/12/11 00:56:29;;;;;;;;;;;16.00;82.40;;;;;;5055185;28;19927;-75
2023/12/11 00:58:55;;;;;;;;;;;16.00;82.90;;;;;;5055321;28;19909;-75
2023/12/11 01:01:21;;;;;;;;;;;16.00;82.40;;;;;;5055361;28;20325;-75
2023/12/11 01:03:47;;;;;;;;;;;16.10;82.60;;;;;;5054961;28;20403;-70
2023/12/11 01:06:13;;;;;;;;;;;16.00;82.80;;;;;;5055281;28;19908;-70
2023/12/11 01:08:39;;;;;;;;;;;16.00;82.70;;;;;;5054813;28;20021;-71
2023/12/11 01:11:05;;;;;;;;;;;16.10;82.60;;;;;;5055145;28;19913;-71
2023/12/11 01:13:31;;;;;;;;;;;16.10;83.00;;;;;;5054810;28;19919;-71
2023/12/11 01:15:56;;;;;;;;;;;15.90;82.80;;;;;;5054674;28;19917;-71
2023/12/11 01:18:23;;;;;;;;;;;16.00;83.00;;;;;;5054758;28;19996;-71
2023/12/11 01:20:49;;;;;;;;;;;16.00;83.50;;;;;;5055159;28;19909;-75
2023/12/11 01:23:15;;;;;;;;;;;16.00;83.30;;;;;;5054722;28;19909;-75
2023/12/11 01:25:41;;;;;;;;;;;16.00;83.40;;;;;;5054538;28;19975;-75
2023/12/11 01:28:06;;;;;;;;;;;16.00;83.20;;;;;;5054562;28;19908;-75
2023/12/11 01:30:32;;;;;;;;;;;16.00;83.20;;;;;;5054554;28;19913;-70
2023/12/11 01:32:57;;;;;;;;;;;16.00;83.30;;;;;;5054405;28;20360;-70
2023/12/11 01:35:23;;;;;;;;;;;16.00;83.20;;;;;;5054353;28;20010;-70
2023/12/11 01:37:48;;;;;;;;;;;16.00;83.20;;;;;;5053530;28;19924;-71
2023/12/11 01:40:14;;;;;;;;;;;16.00;83.20;;;;;;5054232;28;19908;-70
2023/12/11 01:42:40;;;;;;;;;;;16.10;83.00;;;;;;5054224;28;19962;-71
2023/12/11 01:45:05;;;;;;;;;;;16.10;83.10;;;;;;5054067;28;19909;-70
2023/12/11 01:47:31;;;;;;;;;;;16.10;82.00;;;;;;5054651;28;19948;-75
2023/12/11 01:49:57;;;;;;;;;;;16.10;83.20;;;;;;5054104;28;19909;-75
2023/12/11 01:52:23;;;;;;;;;;;16.10;83.40;;;;;;5054087;28;19909;-75
2023/12/11 01:54:48;;;;;;;;;;;16.10;83.20;;;;;;5054340;28;19936;-75
2023/12/11 01:57:14;;;;;;;;;;;16.10;83.00;;;;;;5053966;28;19943;-75
2023/12/11 01:59:40;;;;;;;;;;;16.10;82.90;;;;;;5053994;28;19916;-75
2023/12/11 02:02:05;;;;;;;;;;;16.10;83.10;;;;;;5053879;28;19908;-75
2023/12/11 02:04:31;;;;;;;;;;;16.10;83.10;;;;;;5053863;28;20356;-75
2023/12/11 02:06:57;;;;;;;;;;;16.00;82.90;;;;;;5053933;28;19998;-75
2023/12/11 02:09:22;;;;;;;;;;;16.20;83.40;;;;;;5053843;28;19920;-75
2023/12/11 02:11:48;;;;;;;;;;;16.10;82.90;;;;;;5053887;28;19909;-75
2023/12/11 02:14:14;;;;;;;;;;;16.00;82.70;;;;;;5053623;28;19951;-75
2023/12/11 02:16:39;;;;;;;;;;;16.10;82.90;;;;;;5054059;28;19916;-70
2023/12/11 02:19:06;;;;;;;;;;;16.10;83.20;;;;;;5053451;28;20284;-70
2023/12/11 02:21:32;;;;;;;;;;;16.00;82.80;;;;;;5053370;28;19975;-70
2023/12/11 02:24:07;;;;;;;;;;;16.10;82.90;;;;;;5053362;28;19955;-70
2023/12/11 02:26:32;;;;;;;;;;;16.10;78.30;;;;;;5053399;28;19921;-70
2023/12/11 02:28:58;;;;;;;;;;;16.10;82.90;;;;;;5053355;28;20330;-74
2023/12/11 02:31:23;;;;;;;;;;;16.00;83.00;;;;;;5053072;28;19979;-74
2023/12/11 02:33:49;;;;;;;;;;;16.00;83.00;;;;;;5053100;28;20267;-74
2023/12/11 02:36:14;;;;;;;;;;;16.10;83.20;;;;;;5052960;28;19939;-74
2023/12/11 02:38:40;;;;;;;;;;;16.00;83.00;;;;;;5053066;28;19966;-74
2023/12/11 02:41:06;;;;;;;;;;;16.10;82.90;;;;;;5053023;28;20012;-75
2023/12/11 02:43:31;;;;;;;;;;;15.90;82.90;;;;;;5052894;28;19912;-74
2023/12/11 02:45:57;;;;;;;;;;;16.10;82.90;;;;;;5053445;28;19908;-75
2023/12/11 02:48:22;;;;;;;;;;;16.00;83.00;;;;;;5052831;28;20351;-74
2023/12/11 02:50:48;;;;;;;;;;;16.10;83.10;;;;;;5052792;28;20380;-74
2023/12/11 02:53:13;;;;;;;;;;;16.00;82.80;;;;;;5053101;28;20359;-74
2023/12/11 02:55:39;;;;;;;;;;;14.70;82.10;;;;;;5052874;28;19915;-75
2023/12/11 02:58:04;;;;;;;;;;;16.10;82.80;;;;;;5052965;28;19912;-71
2023/12/11 03:00:30;;;;;;;;;;;16.10;82.90;;;;;;5052777;28;19913;-71
2023/12/11 03:02:56;;;;;;;;;;;16.00;82.70;;;;;;5052947;28;20268;-71
2023/12/11 03:05:22;;;;;;;;;;;15.90;82.70;;;;;;5052946;28;19916;-70
2023/12/11 03:07:48;;;;;;;;;;;16.10;83.30;;;;;;5052696;28;19954;-71
2023/12/11 03:10:13;;;;;;;;;;;16.00;83.30;;;;;;5052728;28;20394;-71
2023/12/11 03:12:39;;;;;;;;;;;16.10;82.90;;;;;;5053138;28;20000;-75
2023/12/11 03:15:06;;;;;;;;;;;16.10;83.40;;;;;;5052605;28;20390;-75
2023/12/11 03:17:31;;;;;;;;;;;16.10;82.50;;;;;;5052555;28;19923;-75
2023/12/11 03:19:59;;;;;;;;;;;16.10;83.20;;;;;;5052571;28;19992;-75
2023/12/11 03:22:25;;;;;;;;;;;16.00;82.80;;;;;;5052510;28;19908;-75
2023/12/11 03:24:51;;;;;;;;;;;16.00;82.70;;;;;;5052441;28;19925;-75
2023/12/11 03:27:16;;;;;;;;;;;16.10;83.40;;;;;;5052473;28;20256;-75
2023/12/11 03:29:44;;;;;;;;;;;16.00;82.80;;;;;;5051867;28;20305;-75
2023/12/11 03:32:09;;;;;;;;;;;16.00;82.90;;;;;;5052263;28;20326;-74
2023/12/11 03:34:35;;;;;;;;;;;16.00;83.00;;;;;;5052335;28;19929;-74
2023/12/11 03:37:01;;;;;;;;;;;16.10;82.80;;;;;;5050847;28;19921;-74
2023/12/11 03:39:27;;;;;;;;;;;16.00;82.80;;;;;;5052364;28;20287;-74
2023/12/11 03:41:54;;;;;;;;;;;16.20;82.50;;;;;;5052544;28;19916;-74
2023/12/11 03:44:20;;;;;;;;;;;16.00;83.30;;;;;;5052097;28;19908;-74
2023/12/11 03:46:46;;;;;;;;;;;16.10;82.90;;;;;;5052302;28;19915;-74
2023/12/11 03:49:16;;;;;;;;;;;16.10;83.00;;;;;;5052131;28;20363;-75
2023/12/11 03:51:42;;;;;;;;;;;16.10;82.70;;;;;;5052145;28;19916;-75
2023/12/11 03:54:08;;;;;;;;;;;16.10;83.40;;;;;;5052467;28;19916;-75
2023/12/11 03:56:35;;;;;;;;;;;15.80;82.30;;;;;;5052311;28;19970;-75
2023/12/11 03:59:01;;;;;;;;;;;16.00;82.80;;;;;;5052042;28;20341;-75
2023/12/11 04:01:27;;;;;;;;;;;16.00;82.60;;;;;;5055602;28;19908;-75
2023/12/11 04:03:53;;;;;;;;;;;16.10;82.80;;;;;;5056398;28;19909;-75
2023/12/11 04:06:19;;;;;;;;;;;16.10;83.00;;;;;;5056338;28;19948;-75
2023/12/11 04:08:45;;;;;;;;;;;16.00;82.50;;;;;;5055994;28;20330;-74
2023/12/11 04:11:12;;;;;;;;;;;16.00;82.90;;;;;;5056738;28;19999;-74
2023/12/11 04:13:38;;;;;;;;;;;16.10;83.00;;;;;;5055902;28;19908;-74
2023/12/11 04:16:04;;;;;;;;;;;16.00;82.50;;;;;;5055630;28;20332;-74
2023/12/11 04:18:30;;;;;;;;;;;16.00;80.70;;;;;;5055774;28;19920;-74
2023/12/11 04:20:57;;;;;;;;;;;16.00;82.60;;;;;;5055812;28;19909;-74
2023/12/11 04:23:22;;;;;;;;;;;16.00;82.40;;;;;;5055832;28;19918;-74
2023/12/11 04:25:48;;;;;;;;;;;16.00;82.50;;;;;;5055402;28;19983;-75
2023/12/11 04:28:13;;;;;;;;;;;16.00;82.70;;;;;;5055692;28;20011;-74
2023/12/11 04:30:39;;;;;;;;;;;16.20;82.80;;;;;;5055597;28;19919;-75
2023/12/11 04:33:04;;;;;;;;;;;15.90;82.50;;;;;;5055677;28;19916;-75
2023/12/11 04:35:30;;;;;;;;;;;16.00;83.30;;;;;;5055435;28;19913;-74
2023/12/11 04:37:55;;;;;;;;;;;15.90;82.50;;;;;;5055381;28;19912;-74
2023/12/11 04:40:21;;;;;;;;;;;16.00;82.60;;;;;;5055884;28;19917;-74
2023/12/11 04:42:46;;;;;;;;;;;15.80;82.30;;;;;;5055410;28;19909;-74
2023/12/11 04:45:12;;;;;;;;;;;16.00;82.90;;;;;;5055346;28;19909;-75
2023/12/11 04:47:37;;;;;;;;;;;16.00;82.50;;;;;;5055315;28;19916;-75
2023/12/11 04:50:03;;;;;;;;;;;15.90;82.70;;;;;;5055336;28;19909;-75
2023/12/11 04:52:29;;;;;;;;;;;16.00;82.10;;;;;;5055470;28;20252;-75
2023/12/11 04:54:57;;;;;;;;;;;15.90;82.50;;;;;;5055051;28;19912;-75
2023/12/11 04:57:22;;;;;;;;;;;15.90;82.90;;;;;;5055226;28;19940;-75
2023/12/11 04:59:48;;;;;;;;;;;16.00;83.10;;;;;;5055094;28;19909;-75
2023/12/11 05:04:43;;;;;;;;;;;15.90;82.50;;;;;;5072803;28;19963;-78
2023/12/11 05:07:08;;;;;;;;;;;16.00;82.60;;;;;;5075300;28;20408;-78
2023/12/11 05:09:34;;;;;;;;;;;16.10;82.70;;;;;;5075202;28;19951;-78
2023/12/11 05:11:59;;;;;;;;;;;16.00;82.60;;;;;;5073936;28;19916;-78
2023/12/11 05:14:25;;;;;;;;;;;16.10;82.90;;;;;;5075146;28;19916;-78
2023/12/11 05:16:50;;;;;;;;;;;16.10;82.70;;;;;;5075282;28;19921;-78
2023/12/11 05:19:16;;;;;;;;;;;16.10;82.80;;;;;;5075332;28;19909;-78
2023/12/11 05:21:44;;;;;;;;;;;16.10;82.60;;;;;;5074969;28;19912;-78
2023/12/11 05:24:11;;;;;;;;;;;16.00;77.60;;;;;;5075006;28;19970;-78
2023/12/11 05:26:36;;;;;;;;;;;16.00;83.20;;;;;;5075174;28;20286;-78
2023/12/11 05:29:03;;;;;;;;;;;16.50;82.70;;;;;;5074863;28;19915;-78
2023/12/11 05:31:32;;;;;;;;;;;15.90;81.70;;;;;;5075072;28;19912;-78
2023/12/11 05:33:58;;;;;;;;;;;16.00;77.80;;;;;;5074839;28;19912;-78
2023/12/11 05:36:24;;;;;;;;;;;16.00;82.50;;;;;;5075244;28;19924;-78
2023/12/11 05:38:49;;;;;;;;;;;16.10;82.60;;;;;;5074821;28;19908;-78
2023/12/11 05:41:15;;;;;;;;;;;16.10;82.70;;;;;;5074620;28;19916;-77
2023/12/11 05:43:40;;;;;;;;;;;16.10;82.80;;;;;;5074524;28;20317;-78
2023/12/11 05:46:06;;;;;;;;;;;16.10;83.00;;;;;;5074518;28;19908;-78
2023/12/11 05:48:32;;;;;;;;;;;16.00;82.60;;;;;;5074552;28;19913;-78
2023/12/11 05:50:57;;;;;;;;;;;16.10;82.60;;;;;;5074370;28;20340;-78
2023/12/11 05:53:23;;;;;;;;;;;16.20;82.60;;;;;;5074395;28;19908;-78
2023/12/11 05:55:48;;;;;;;;;;;16.00;82.60;;;;;;5074442;28;19974;-78
2023/12/11 05:58:14;;;;;;;;;;;16.10;82.50;;;;;;5074689;28;19915;-78
2023/12/11 06:00:39;;;;;;;;;;;16.00;82.20;;;;;;5074503;28;20359;-78
2023/12/11 06:03:05;;;;;;;;;;;16.00;82.30;;;;;;5058552;28;19931;-78
2023/12/11 06:05:31;;;;;;;;;;;15.90;82.30;;;;;;5054555;28;20355;-70
2023/12/11 06:07:57;;;;;;;;;;;16.10;82.40;;;;;;5054077;28;20461;-70
2023/12/11 06:10:24;;;;;;;;;;;16.00;82.30;;;;;;5054314;28;20282;-72
2023/12/11 06:12:50;;;;;;;;;;;16.00;82.20;;;;;;5054301;28;19909;-71
2023/12/11 06:15:16;;;;;;;;;;;16.00;82.10;;;;;;5054239;28;19913;-75
2023/12/11 06:17:42;;;;;;;;;;;16.00;82.30;;;;;;5054226;28;20279;-68
2023/12/11 06:20:09;;;;;;;;;;;16.10;82.00;;;;;;5060847;28;20271;-69
2023/12/11 06:22:35;;;;;;;;;;;16.10;80.60;;;;;;5053383;28;19917;-71
2023/12/11 06:25:02;;;;;;;;;;;16.00;82.10;;;;;;5053717;28;19918;-70
2023/12/11 06:27:27;;;;;;;;;;;16.00;81.90;;;;;;5053401;28;19908;-70
2023/12/11 06:29:53;;;;;;;;;;;15.90;82.20;;;;;;5053651;28;19920;-71
2023/12/11 06:32:19;;;;;;;;;;;16.00;82.50;;;;;;5054114;28;19908;-72
2023/12/11 06:34:44;;;;;;;;;;;16.00;81.80;;;;;;5053522;28;19915;-69
2023/12/11 06:37:10;;;;;;;;;;;16.00;82.10;;;;;;5053434;28;19916;-70
2023/12/11 06:39:36;;;;;;;;;;;16.00;81.70;;;;;;5053629;28;19913;-72
2023/12/11 06:42:02;;;;;;;;;;;16.00;82.10;;;;;;5053388;28;19996;-70
2023/12/11 06:44:27;;;;;;;;;;;16.00;81.80;;;;;;5053422;28;19959;-78
2023/12/11 06:46:53;;;;;;;;;;;16.00;81.80;;;;;;5053535;28;19913;-78
2023/12/11 06:49:20;;;;;;;;;;;15.90;81.80;;;;;;5053138;28;19987;-78
2023/12/11 06:51:45;;;;;;;;;;;16.00;81.90;;;;;;5053462;28;20244;-78
2023/12/11 06:54:12;;;;;;;;;;;16.00;81.80;;;;;;5053059;28;19909;-77
2023/12/11 06:56:38;;;;;;;;;;;15.90;81.30;;;;;;5053168;28;20316;-78
2023/12/11 06:59:04;;;;;;;;;;;16.10;82.00;;;;;;5053150;28;19909;-79
2023/12/11 07:01:31;;;;;;;;;;;16.00;81.70;;;;;;5053352;28;20422;-78
2023/12/11 07:03:57;;;;;;;;;;;15.80;81.90;;;;;;5052570;28;19920;-78
2023/12/11 07:06:23;;;;;;;;;;;16.00;81.80;;;;;;5053022;28;19909;-76
2023/12/11 07:08:50;;;;;;;;;;;16.00;81.80;;;;;;5053059;28;19909;-84
2023/12/11 07:11:16;;;;;;;;;;;16.10;81.90;;;;;;5052994;28;20314;-76
2023/12/11 07:13:42;;;;;;;;;;;16.10;81.70;;;;;;5053085;28;19909;-83
2023/12/11 07:16:11;;;;;;;;;;;16.10;81.80;;;;;;5052866;28;19927;-77
2023/12/11 07:18:40;;;;;;;;;;;16.00;76.90;;;;;;5052882;28;19955;-77
2023/12/11 07:21:10;;;;;;;;;;;16.00;77.10;;;;;;5052487;28;19909;-76
2023/12/11 07:23:37;;;;;;;;;;;16.00;76.90;;;;;;5052584;28;19908;-77
2023/12/11 07:26:08;;;;;;;;;;;16.00;82.10;;;;;;5052757;28;19909;-76
2023/12/11 07:28:38;;;;;;;;;;;16.00;80.80;;;;;;5052605;28;20389;-72
2023/12/11 07:31:05;;;;;;;;;;;15.80;77.10;;;;;;5053237;28;20275;-78
2023/12/11 07:33:31;;;;;;;;;;;16.10;82.20;;;;;;5052715;28;19916;-70
2023/12/11 07:35:58;;;;;;;;;;;15.50;81.90;;;;;;5051786;28;19966;-71
2023/12/11 07:38:25;;;;;;;;;;;16.00;82.10;;;;;;5052404;28;19999;-71
2023/12/11 07:40:52;;;;;;;;;;;16.00;82.30;;;;;;5052441;28;19919;-69
2023/12/11 07:43:17;;;;;;;;;;;16.10;83.10;;;;;;5052402;28;19913;-69
2023/12/11 07:45:43;;;;;;;;;;;16.00;82.50;;;;;;5034454;28;19963;-70
2023/12/11 07:48:08;;;;;;;;;;;16.00;82.00;;;;;;5052306;28;19909;-69
2023/12/11 07:50:34;;;;;;;;;;;16.00;82.50;;;;;;5052228;28;20532;-69
2023/12/11 07:52:59;;;;;;;;;;;16.00;82.60;;;;;;5052448;28;20359;-69
2023/12/11 07:55:25;;;;;;;;;;;15.90;82.60;;;;;;5052188;28;19944;-69
2023/12/11 07:57:51;;;;;;;;;;;16.00;82.60;;;;;;5052576;28;20358;-69
2023/12/11 08:00:17;;;;;;;;;;;16.00;82.80;;;;;;5052030;28;20526;-69
2023/12/11 08:02:42;;;;;;;;;;;16.00;82.70;;;;;;5051793;28;20614;-70
2023/12/11 08:05:09;;;;;;;;;;;16.10;83.30;;;;;;5052301;28;19909;-68
2023/12/11 08:07:36;;;;;;;;;;;16.10;82.70;;;;;;5052382;28;20275;-68
2023/12/11 08:10:02;;;;;;;;;;;16.10;82.90;;;;;;5052094;28;19908;-72
2023/12/11 08:12:28;;;;;;;;;;;16.10;82.40;;;;;;5051946;28;19928;-75
2023/12/11 08:14:53;;;;;;;;;;;15.90;82.50;;;;;;5052084;28;19916;-73
2023/12/11 08:17:19;;;;;;;;;;;16.00;82.50;;;;;;5051932;28;19917;-72
2023/12/11 08:19:45;;;;;;;;;;;16.00;82.40;;;;;;5052270;28;20282;-72
2023/12/11 08:22:11;;;;;;;;;;;16.10;82.70;;;;;;5052252;28;19909;-72
2023/12/11 08:24:37;;;;;;;;;;;16.00;82.60;;;;;;5052226;28;19932;-72
2023/12/11 08:27:07;;;;;;;;;;;16.00;82.80;;;;;;5052561;28;20360;-69
2023/12/11 08:29:34;;;;;;;;;;;16.10;81.90;;;;;;5051741;28;19920;-69
2023/12/11 08:32:00;;;;;;;;;;;15.90;82.60;;;;;;5051550;28;20278;-68
2023/12/11 08:34:26;;;;;;;;;;;16.10;82.80;;;;;;5051437;28;19909;-68
2023/12/11 08:36:51;;;;;;;;;;;16.00;82.50;;;;;;5051982;28;20322;-69
2023/12/11 08:39:17;;;;;;;;;;;16.00;82.50;;;;;;5051781;28;20424;-73
2023/12/11 08:41:42;;;;;;;;;;;16.10;82.70;;;;;;5051893;28;19992;-75
2023/12/11 08:44:08;;;;;;;;;;;16.00;82.50;;;;;;5051717;28;19966;-73
2023/12/11 08:46:35;;;;;;;;;;;16.00;82.40;;;;;;5053686;28;19982;-74
2023/12/11 08:49:01;;;;;;;;;;;16.10;83.00;;;;;;5055714;28;19909;-73
2023/12/11 08:51:27;;;;;;;;;;;16.00;82.50;;;;;;5055281;28;19909;-74
2023/12/11 08:53:53;;;;;;;;;;;15.90;82.40;;;;;;5055586;28;19931;-73
2023/12/11 08:56:19;;;;;;;;;;;16.00;82.60;;;;;;5055793;28;20453;-73
2023/12/11 08:58:48;;;;;;;;;;;16.00;82.60;;;;;;5055202;28;20008;-75
2023/12/11 09:01:14;;;;;;;;;;;16.00;82.60;;;;;;5055476;28;19935;-73
2023/12/11 09:03:42;;;;;;;;;;;16.00;82.70;;;;;;5054965;28;20016;-74
2023/12/11 09:06:08;;;;;;;;;;;16.10;82.60;;;;;;5058241;28;19913;-74
2023/12/11 09:08:34;;;;;;;;;;;16.00;82.50;;;;;;5055520;28;20287;-72
2023/12/11 09:11:00;;;;;;;;;;;15.60;83.20;;;;;;5055016;28;19909;-72
2023/12/11 09:13:26;;;;;;;;;;;16.00;82.50;;;;;;5055232;28;19935;-72
2023/12/11 09:15:51;;;;;;;;;;;16.00;82.40;;;;;;5055172;28;19916;-76
2023/12/11 09:18:17;;;;;;;;;;;16.00;82.80;;;;;;5054931;28;20363;-74
2023/12/11 09:20:43;;;;;;;;;;;15.90;82.50;;;;;;5055085;28;20282;-72
2023/12/11 09:23:10;;;;;;;;;;;16.10;82.60;;;;;;5055277;28;19909;-69
2023/12/11 09:25:36;;;;;;;;;;;16.00;82.50;;;;;;5055034;28;20003;-70
2023/12/11 09:28:04;;;;;;;;;;;16.00;83.00;;;;;;5037172;28;19917;-69
2023/12/11 09:30:30;;;;;;;;;;;16.00;82.40;;;;;;5037375;28;20263;-69
2023/12/11 09:32:56;;;;;;;;;;;16.10;83.10;;;;;;5037060;28;19967;-68
2023/12/11 09:35:22;;;;;;;;;;;16.00;82.60;;;;;;5036852;28;19959;-68
2023/12/11 09:37:48;;;;;;;;;;;16.00;82.40;;;;;;5036986;28;20329;-68
2023/12/11 09:40:15;;;;;;;;;;;16.50;83.00;;;;;;5036993;28;19919;-69
2023/12/11 09:42:43;;;;;;;;;;;16.00;82.20;;;;;;5036660;28;19919;-69
2023/12/11 09:45:12;;;;;;;;;;;16.00;83.00;;;;;;5036988;28;19991;-69
2023/12/11 09:47:54;;;;;;;;;;;16.00;77.90;;;;;;5036858;28;19920;-69
2023/12/11 09:50:21;;;;;;;;;;;16.00;77.60;;;;;;5036559;28;19917;-69
2023/12/11 09:52:47;;;;;;;;;;;16.30;82.90;;;;;;5037280;28;20362;-74
2023/12/11 09:55:13;;;;;;;;;;;16.10;82.60;;;;;;5036789;28;19948;-75
2023/12/11 09:57:40;;;;;;;;;;;16.00;83.10;;;;;;5035910;28;19921;-71
2023/12/11 10:00:11;;;;;;;;;;;16.00;83.00;;;;;;5036707;28;20264;-73
2023/12/11 10:02:40;;;;;;;;;;;16.00;82.60;;;;;;5036147;28;19942;-73
2023/12/11 10:05:07;;;;;;;;;;;16.00;77.80;;;;;;5036574;28;19913;-68
2023/12/11 10:07:34;;;;;;;;;;;16.10;82.70;;;;;;5053491;28;19944;-68
2023/12/11 10:10:20;;;;;;;;;;;16.00;83.10;;;;;;5054226;28;19947;-72
2023/12/11 10:12:46;;;;;;;;;;;16.00;82.60;;;;;;5053775;28;19909;-69
2023/12/11 10:15:20;;;;;;;;;;;16.00;82.60;;;;;;5036319;28;19913;-68
2023/12/11 10:17:46;;;;;;;;;;;16.10;82.80;;;;;;5035957;28;19921;-69
2023/12/11 10:20:16;;;;;;;;;;;16.10;82.60;;;;;;5036465;28;19940;-72
2023/12/11 10:22:42;;;;;;;;;;;16.00;82.40;;;;;;5035883;28;19913;-72
2023/12/11 10:25:08;;;;;;;;;;;16.10;82.50;;;;;;5035894;28;19917;-72
2023/12/11 10:27:34;;;;;;;;;;;15.90;82.40;;;;;;5035806;28;19917;-72
2023/12/11 10:30:08;;;;;;;;;;;16.00;82.30;;;;;;5036042;28;19919;-73
2023/12/11 10:32:34;;;;;;;;;;;16.00;82.70;;;;;;5053755;28;19975;-69
2023/12/11 10:35:00;;;;;;;;;;;16.00;82.30;;;;;;5053685;28;19909;-70
2023/12/11 10:37:30;;;;;;;;;;;16.00;82.60;;;;;;5035502;28;19923;-70
2023/12/11 10:39:56;;;;;;;;;;;16.10;77.50;;;;;;5053603;28;20278;-70
2023/12/11 10:42:22;;;;;;;;;;;16.00;82.80;;;;;;5053601;28;20270;-69
2023/12/11 10:44:49;;;;;;;;;;;16.10;82.60;;;;;;5053516;28;19913;-70
2023/12/11 10:47:15;;;;;;;;;;;16.00;82.80;;;;;;5053466;28;19909;-69
2023/12/11 10:49:41;;;;;;;;;;;16.10;82.80;;;;;;5053867;28;19909;-69
2023/12/11 10:52:08;;;;;;;;;;;16.10;82.90;;;;;;5053379;28;19962;-69
2023/12/11 10:54:42;;;;;;;;;;;16.10;83.10;;;;;;5053387;28;19996;-70
2023/12/11 10:57:25;;;;;;;;;;;16.10;77.70;;;;;;5051333;28;20322;-69
2023/12/11 10:59:51;;;;;;;;;;;16.20;83.20;;;;;;5053223;28;19912;-71
2023/12/11 11:02:17;;;;;;;;;;;16.10;82.60;;;;;;5053159;28;19912;-70
2023/12/11 11:04:44;;;;;;;;;;;16.00;82.90;;;;;;5052815;28;19975;-69
2023/12/11 11:07:16;;;;;;;;;;;16.10;83.20;;;;;;5053093;28;19909;-69
2023/12/11 11:10:03;;;;;;;;;;;16.00;78.10;;;;;;5051847;28;19909;-70
2023/12/11 11:12:38;;;;;;;;;;;16.00;82.60;;;;;;5053080;28;19909;-69
2023/12/11 11:15:05;;;;;;;;;;;16.10;82.60;;;;;;5052629;28;20410;-69
2023/12/11 11:17:50;;;;;;;;;;;16.00;80.90;;;;;;5053323;28;19941;-68
2023/12/11 11:20:17;;;;;;;;;;;16.00;77.80;;;;;;5052898;28;19957;-70
2023/12/11 11:22:43;;;;;;;;;;;16.00;82.80;;;;;;5052814;28;19909;-69
2023/12/11 11:25:27;;;;;;;;;;;16.00;82.70;;;;;;5052510;28;20570;-75
2023/12/11 11:27:53;;;;;;;;;;;16.00;77.70;;;;;;5052469;28;19932;-69
2023/12/11 11:30:48;;;;;;;;;;;16.00;82.80;;;;;;5052533;28;19909;-77
2023/12/11 11:33:14;;;;;;;;;;;16.30;77.90;;;;;;5052246;28;19915;-76
2023/12/11 11:35:43;;;;;;;;;;;16.00;82.60;;;;;;5052589;28;19999;-74
2023/12/11 11:38:09;;;;;;;;;;;16.00;82.60;;;;;;5052244;28;19909;-75
2023/12/11 11:40:36;;;;;;;;;;;16.20;83.00;;;;;;5052360;28;19909;-74
2023/12/11 11:43:03;;;;;;;;;;;16.00;82.50;;;;;;5052181;28;20062;-77
2023/12/11 11:45:29;;;;;;;;;;;15.90;83.10;;;;;;5053080;28;19969;-77
2023/12/11 11:47:55;;;;;;;;;;;16.10;83.30;;;;;;5052258;28;19909;-77
2023/12/11 11:50:21;;;;;;;;;;;16.00;82.50;;;;;;5052517;28;19915;-76
2023/12/11 11:52:50;;;;;;;;;;;16.00;82.60;;;;;;5052302;28;19931;-76
2023/12/11 11:55:24;;;;;;;;;;;16.10;82.50;;;;;;5052256;28;20291;-77
2023/12/11 11:57:50;;;;;;;;;;;16.10;77.80;;;;;;5052202;28;20338;-77
2023/12/11 12:00:23;;;;;;;;;;;16.10;82.70;;;;;;5052221;28;20000;-77
2023/12/11 12:03:03;;;;;;;;;;;16.00;82.60;;;;;;5051908;28;19920;-77
2023/12/11 12:05:29;;;;;;;;;;;16.00;77.90;;;;;;5058890;28;19909;-77
2023/12/11 12:07:54;;;;;;;;;;;16.00;83.00;;;;;;5052123;28;20380;-76
2023/12/11 12:10:20;;;;;;;;;;;16.10;83.10;;;;;;5052061;28;19915;-76
2023/12/11 12:12:50;;;;;;;;;;;16.10;83.10;;;;;;5051787;28;19908;-77
2023/12/11 12:15:16;;;;;;;;;;;16.10;82.70;;;;;;5052037;28;19909;-70
2023/12/11 12:17:45;;;;;;;;;;;16.00;83.30;;;;;;5051627;28;19917;-70
2023/12/11 12:20:16;;;;;;;;;;;16.00;83.10;;;;;;5051979;28;19916;-70
2023/12/11 12:22:57;;;;;;;;;;;15.80;77.50;;;;;;5055571;28;19909;-70
2023/12/11 12:25:23;;;;;;;;;;;16.00;77.90;;;;;;5055468;28;19995;-78
2023/12/11 12:27:52;;;;;;;;;;;16.00;82.80;;;;;;5055977;28;20355;-85
2023/12/11 12:30:21;;;;;;;;;;;16.00;82.70;;;;;;5055643;28;19910;-76
2023/12/11 12:32:51;;;;;;;;;;;16.00;80.20;;;;;;5056026;28;19916;-73
2023/12/11 12:35:17;;;;;;;;;;;16.10;77.70;;;;;;5055627;28;19908;-74
2023/12/11 12:37:44;;;;;;;;;;;16.00;82.60;;;;;;5055694;28;19979;-78
2023/12/11 12:40:11;;;;;;;;;;;16.00;83.20;;;;;;5055605;28;19909;-74
2023/12/11 12:42:37;;;;;;;;;;;16.00;82.10;;;;;;5055599;28;19909;-74
2023/12/11 12:45:03;;;;;;;;;;;15.90;83.20;;;;;;5055598;28;19912;-72
2023/12/11 12:47:31;;;;;;;;;;;16.00;82.60;;;;;;5037620;28;20298;-73
2023/12/11 12:49:58;;;;;;;;;;;16.00;82.40;;;;;;5055359;28;19909;-73
2023/12/11 12:52:25;;;;;;;;;;;16.10;83.20;;;;;;5055583;28;19908;-71
2023/12/11 12:54:53;;;;;;;;;;;16.40;82.70;;;;;;5055224;28;20390;-72
2023/12/11 12:57:19;;;;;;;;;;;16.00;83.00;;;;;;5055156;28;19917;-75
2023/12/11 12:59:46;;;;;;;;;;;16.10;82.90;;;;;;5055412;28;20335;-70
2023/12/11 13:02:16;;;;;;;;;;;16.00;82.60;;;;;;5055402;28;19916;-70
2023/12/11 13:04:49;;;;;;;;;;;16.00;84.00;;;;;;5055076;28;19948;-76
2023/12/11 13:07:15;;;;;;;;;;;16.00;77.60;;;;;;5055319;28;20004;-76
2023/12/11 13:09:41;;;;;;;;;;;15.90;82.90;;;;;;5055396;28;19936;-77
2023/12/11 13:12:07;;;;;;;;;;;16.00;83.00;;;;;;5055100;28;20425;-76
2023/12/11 13:14:33;;;;;;;;;;;16.00;82.50;;;;;;5054889;28;19913;-76
2023/12/11 13:16:58;;;;;;;;;;;16.00;82.50;;;;;;5054875;28;19917;-77
2023/12/11 13:19:24;;;;;;;;;;;15.90;82.80;;;;;;5055386;28;19953;-76
2023/12/11 13:21:50;;;;;;;;;;;16.00;83.00;;;;;;5054893;28;19961;-77
2023/12/11 13:24:15;;;;;;;;;;;16.00;82.70;;;;;;5054712;28;19954;-74
2023/12/11 13:26:41;;;;;;;;;;;16.00;83.00;;;;;;5054749;28;19948;-74
2023/12/11 13:29:06;;;;;;;;;;;16.10;82.90;;;;;;5054724;28;19909;-79
2023/12/11 13:31:32;;;;;;;;;;;16.00;82.40;;;;;;5054707;28;19947;-77
2023/12/11 13:33:57;;;;;;;;;;;16.00;82.60;;;;;;5053553;28;19913;-77
2023/12/11 13:36:23;;;;;;;;;;;16.00;82.90;;;;;;5054493;28;20020;-77
2023/12/11 13:38:49;;;;;;;;;;;16.00;83.00;;;;;;5054478;28;19909;-75
2023/12/11 13:41:14;;;;;;;;;;;16.00;82.80;;;;;;5054826;28;20007;-74
2023/12/11 13:43:40;;;;;;;;;;;16.00;82.80;;;;;;5054351;28;19952;-75
2023/12/11 13:46:05;;;;;;;;;;;16.00;83.00;;;;;;5054508;28;19916;-75
2023/12/11 13:48:31;;;;;;;;;;;16.00;82.40;;;;;;5054932;28;19908;-72
2023/12/11 13:50:58;;;;;;;;;;;16.00;82.80;;;;;;5054567;28;19915;-71
2023/12/11 13:53:23;;;;;;;;;;;16.20;83.40;;;;;;5054220;28;19916;-71
2023/12/11 13:55:49;;;;;;;;;;;16.00;82.50;;;;;;5054104;28;19909;-71
2023/12/11 13:58:14;;;;;;;;;;;16.00;82.80;;;;;;5054191;28;19967;-71
2023/12/11 14:00:40;;;;;;;;;;;16.00;83.00;;;;;;5054208;28;19916;-71
2023/12/11 14:03:05;;;;;;;;;;;16.00;82.50;;;;;;5054017;28;19943;-71
2023/12/11 14:05:32;;;;;;;;;;;16.00;83.30;;;;;;5054057;28;19912;-71
2023/12/11 14:07:59;;;;;;;;;;;16.00;82.70;;;;;;5053928;28;19936;-71
2023/12/11 14:10:25;;;;;;;;;;;16.00;82.80;;;;;;5053879;28;20440;-71
2023/12/11 14:12:50;;;;;;;;;;;15.90;83.20;;;;;;5053838;28;19959;-71
2023/12/11 14:15:17;;;;;;;;;;;16.00;82.80;;;;;;5053794;28;19909;-71